Hauptseite
METAR-TAF:

METAR-TAF

Flughäfen :

Rio Branco, Acre, Brasilien

Breite: 10-00S, Länge: 067-48W, Höhe: 142 m

Beobachtung

Neuester Wetterbericht von vor 1 Stunde und 4 Minuten, um 21:00 UTC
Wind 7 kt aus Süd/Südost
Temperatur 26°C
Luftfeuchtigkeit 61%
Luftdruck 1017 hPa
Sichtweite 10 km oder mehr
keine Wolken unter 1500 m und keine Kumulonimbus oder Gewitterwolken

METAR: SBRB 122100Z 16007KT CAVOK 26/18 Q1017

Zeit: 17:04 (22:04 UTC)

Prognose

Neuester Wetterbericht von vor 5 Stunden und 44 Minuten, um 16:20 UTC
Gültige Prognose vom 12 um 18 UTC bis 13 um 06 UTC
Wind 7 kt aus Süd
Sichtweite 10 km oder mehr
Leicht bewölkt in der Höhe von 3000 ft

TAF: SBRB 121620Z 1218/1306 17007KT 9999 FEW030 TX26/1220Z TN19/1305Z RMK PGX

Wetterbeobachtungen und Prognosen von mehr als 4000 Flughäfen (METAR und TAF Bericht).

Die verfügbaren Stationen werden durch gelbe und rote Markierungen auf der Karte dargestellt.

Führen Sie die Maus auf sie, um den Namen der Station zu sehen.

Darauf klicken, um die Beobachtung von Wetterbeobachtungen und Prognosen zu sehen.

Um die Karte zu ändern : klicken Sie auf den grünen Tasten mit einem schwarzen Kreuz Zum Vergrößern, auf den grünen Button mit einem Gedankenstrich zu verkleinern, oder auf die grünen Pfeile für benachbarte Karten.


METAR-TAF: